Time;durP1;ratioP1;P1;durP2;ratioP2;P2;SDS_P1;SDS_P2;PMS_P1;PMS_P2;Temp;Humidity;BMP_temperature;BMP_pressure;BME280_temperature;BME280_humidity;BME280_pressure;Samples;Min_cycle;Max_cycle;Signal;HPM_P1;HPM_P2
2021/06/18 00:01:35;;;;;;;7.10;5.43;;;24.40;65.20;;;;;;5095450;28;20044;-48
2021/06/18 00:04:01;;;;;;;7.50;5.15;;;24.30;66.00;;;;;;5095596;28;20073;-35
2021/06/18 00:06:26;;;;;;;12.13;5.75;;;24.30;65.80;;;;;;5094215;28;20418;-35
2021/06/18 00:08:52;;;;;;;10.00;5.07;;;24.20;66.00;;;;;;5095398;28;20020;-35
2021/06/18 00:11:18;;;;;;;8.27;5.38;;;24.20;66.10;;;;;;5095382;28;20035;-35
2021/06/18 00:13:43;;;;;;;8.43;5.07;;;24.20;66.30;;;;;;5095346;28;20032;-36
2021/06/18 00:16:09;;;;;;;6.18;5.10;;;24.20;66.20;;;;;;5095576;28;20031;-36
2021/06/18 00:18:36;;;;;;;9.35;5.15;;;24.00;66.70;;;;;;5095467;28;20169;-36
2021/06/18 00:21:02;;;;;;;8.98;5.40;;;24.10;66.50;;;;;;5093821;28;20058;-36
2021/06/18 00:23:28;;;;;;;9.45;6.38;;;24.00;66.70;;;;;;5095099;28;20028;-36
2021/06/18 00:25:54;;;;;;;9.20;5.72;;;23.90;67.00;;;;;;5095052;28;20031;-36
2021/06/18 00:28:19;;;;;;;11.52;5.75;;;24.00;66.80;;;;;;5095273;28;20341;-36
2021/06/18 00:30:45;;;;;;;10.70;5.00;;;23.90;66.70;;;;;;5093676;28;20153;-37
2021/06/18 00:33:11;;;;;;;7.82;5.80;;;23.90;66.70;;;;;;5094874;28;20077;-36
2021/06/18 00:35:37;;;;;;;10.18;6.05;;;23.90;66.90;;;;;;5095006;28;20549;-36
2021/06/18 00:38:02;;;;;;;10.32;5.47;;;23.80;67.10;;;;;;5093954;28;20419;-36
2021/06/18 00:40:28;;;;;;;7.97;5.32;;;23.80;67.20;;;;;;5095060;28;20469;-36
2021/06/18 00:42:54;;;;;;;7.65;5.18;;;23.80;67.20;;;;;;5094746;28;20030;-36
2021/06/18 00:45:20;;;;;;;5.72;4.82;;;23.80;67.10;;;;;;5093518;28;20024;-36
2021/06/18 00:47:48;;;;;;;7.75;4.75;;;23.80;67.20;;;;;;5094899;28;20040;-36
2021/06/18 00:50:15;;;;;;;12.07;5.55;;;23.80;67.20;;;;;;5093298;28;20476;-36
2021/06/18 00:52:41;;;;;;;11.98;6.38;;;23.80;67.20;;;;;;5094561;28;20024;-36
2021/06/18 00:55:09;;;;;;;6.60;4.93;;;23.70;67.30;;;;;;5094828;28;20031;-35
2021/06/18 00:57:36;;;;;;;6.57;4.70;;;23.70;67.40;;;;;;5095520;28;20032;-35
2021/06/18 01:00:04;;;;;;;8.00;5.30;;;23.70;67.20;;;;;;5094531;28;20028;-35
2021/06/18 01:02:29;;;;;;;11.98;5.35;;;23.70;67.40;;;;;;5093901;28;20071;-36
2021/06/18 01:04:55;;;;;;;9.07;5.30;;;23.70;67.30;;;;;;5094196;28;20060;-36
2021/06/18 01:07:57;;;;;;;5.13;4.63;;;23.70;67.20;;;;;;5094237;28;20028;-36
2021/06/18 01:10:39;;;;;;;7.78;4.82;;;23.70;67.20;;;;;;5092546;28;20052;-35
2021/06/18 01:13:32;;;;;;;13.55;5.38;;;23.70;67.20;;;;;;5094073;28;20478;-36
2021/06/18 01:16:16;;;;;;;10.75;6.07;;;23.80;67.00;;;;;;5094649;28;20096;-43
2021/06/18 01:19:11;;;;;;;10.43;4.80;;;23.80;66.50;;;;;;5094261;28;20342;-36
2021/06/18 01:21:42;;;;;;;11.57;6.60;;;23.80;66.60;;;;;;5090718;28;20036;-44
2021/06/18 01:24:31;;;;;;;8.80;4.55;;;23.80;66.70;;;;;;5094202;28;20024;-40
2021/06/18 01:27:26;;;;;;;9.30;5.10;;;23.80;67.00;;;;;;5093830;28;20039;-36
2021/06/18 01:30:03;;;;;;;12.05;6.07;;;23.70;67.20;;;;;;5094211;28;20028;-36
2021/06/18 01:32:37;;;;;;;7.50;5.38;;;23.60;67.90;;;;;;5093794;28;20035;-35
2021/06/18 01:35:05;;;;;;;7.55;5.03;;;23.60;67.90;;;;;;5093979;28;20514;-36
2021/06/18 01:37:32;;;;;;;12.75;5.65;;;23.60;68.00;;;;;;5094424;28;20020;-36
2021/06/18 01:40:03;;;;;;;15.02;6.05;;;23.60;67.90;;;;;;5093823;28;20027;-36
2021/06/18 01:42:33;;;;;;;10.88;6.20;;;23.60;68.10;;;;;;5094272;28;20020;-36
2021/06/18 01:44:59;;;;;;;8.07;6.07;;;23.70;67.80;;;;;;5092732;28;20023;-36
2021/06/18 01:47:25;;;;;;;10.27;6.35;;;23.50;68.20;;;;;;5093730;28;20095;-36
2021/06/18 01:49:52;;;;;;;15.98;6.40;;;23.60;68.20;;;;;;5093894;28;20481;-35
2021/06/18 01:52:20;;;;;;;11.75;6.25;;;23.50;68.50;;;;;;5093615;28;20476;-35
2021/06/18 01:54:47;;;;;;;11.02;6.75;;;23.40;68.90;;;;;;5093591;28;20091;-35
2021/06/18 01:57:13;;;;;;;11.95;6.22;;;23.50;68.60;;;;;;5093906;28;20031;-35
2021/06/18 01:59:41;;;;;;;12.32;6.30;;;23.50;68.80;;;;;;5093601;28;20031;-35
2021/06/18 02:02:08;;;;;;;14.43;7.68;;;23.30;69.10;;;;;;5093470;28;20048;-34
2021/06/18 02:04:37;;;;;;;10.88;7.20;;;23.30;69.40;;;;;;5093816;28;20486;-34
2021/06/18 02:07:04;;;;;;;10.15;6.70;;;23.30;69.50;;;;;;5092208;28;20021;-34
2021/06/18 02:09:33;;;;;;;14.00;6.53;;;23.30;70.00;;;;;;5093481;28;20072;-34
2021/06/18 02:11:59;;;;;;;8.98;6.82;;;23.10;70.40;;;;;;5093797;28;20032;-35
2021/06/18 02:14:29;;;;;;;10.48;7.03;;;23.10;70.80;;;;;;5093505;28;20039;-34
2021/06/18 02:16:58;;;;;;;11.20;7.05;;;23.00;70.90;;;;;;5093451;28;20364;-34
2021/06/18 02:19:25;;;;;;;10.15;6.85;;;23.00;70.80;;;;;;5093623;28;20503;-35
2021/06/18 02:21:53;;;;;;;15.48;7.95;;;23.00;71.00;;;;;;5093467;28;20024;-34
2021/06/18 02:24:21;;;;;;;9.20;6.43;;;23.00;71.20;;;;;;5095636;28;20026;-34
2021/06/18 02:26:47;;;;;;;11.55;7.38;;;22.90;71.40;;;;;;5096220;28;20020;-35
2021/06/18 02:29:14;;;;;;;10.63;7.40;;;22.80;71.60;;;;;;5097875;28;20020;-34
2021/06/18 02:31:40;;;;;;;10.40;6.95;;;22.90;71.80;;;;;;5097573;28;20020;-34
2021/06/18 02:34:11;;;;;;;13.63;7.05;;;23.00;71.60;;;;;;5097234;28;20063;-35
2021/06/18 02:36:38;;;;;;;14.57;6.90;;;23.10;71.20;;;;;;5097436;28;20031;-35
2021/06/18 02:39:09;;;;;;;9.52;6.75;;;23.00;71.20;;;;;;5097155;28;20047;-41
2021/06/18 02:41:36;;;;;;;10.70;8.57;;;23.00;71.30;;;;;;5097106;28;20028;-35
2021/06/18 02:44:02;;;;;;;9.32;7.28;;;23.00;71.50;;;;;;5097379;28;20025;-35
2021/06/18 02:46:54;;;;;;;9.50;7.95;;;23.00;71.70;;;;;;5097270;28;20024;-36
2021/06/18 02:49:28;;;;;;;13.70;8.10;;;22.80;72.40;;;;;;5096981;28;20024;-36
2021/06/18 02:52:07;;;;;;;12.52;8.10;;;22.80;72.50;;;;;;5097042;28;20383;-35
2021/06/18 02:54:40;;;;;;;11.73;8.65;;;22.80;72.40;;;;;;5096866;28;20115;-42
2021/06/18 02:57:18;;;;;;;11.23;8.00;;;22.80;72.70;;;;;;5097213;28;20029;-35
2021/06/18 02:59:59;;;;;;;14.25;10.10;;;22.90;72.40;;;;;;5097173;28;20043;-41
2021/06/18 03:02:31;;;;;;;10.85;7.68;;;22.90;72.50;;;;;;5096489;28;20055;-35
2021/06/18 03:04:58;;;;;;;11.15;8.25;;;22.90;72.60;;;;;;5095451;28;20024;-35
2021/06/18 03:07:28;;;;;;;14.23;9.23;;;22.80;72.80;;;;;;5096930;28;20103;-35
2021/06/18 03:09:56;;;;;;;;;;;22.80;73.30;;;;;;5095643;28;20032;-35
2021/06/18 03:12:25;;;;;;;12.65;9.23;;;22.80;73.30;;;;;;5095203;28;19999;-35
2021/06/18 03:14:54;;;;;;;15.75;8.60;;;22.80;73.30;;;;;;5096504;28;20023;-35
2021/06/18 03:17:21;;;;;;;11.38;8.20;;;22.80;73.10;;;;;;5095167;28;20028;-35
2021/06/18 03:19:50;;;;;;;10.30;8.45;;;22.70;73.50;;;;;;5096347;28;20467;-35
2021/06/18 03:22:17;;;;;;;14.25;9.18;;;22.70;73.80;;;;;;5096239;28;20024;-36
2021/06/18 03:24:45;;;;;;;11.75;9.30;;;22.80;73.70;;;;;;5096618;28;20379;-35
2021/06/18 03:27:11;;;;;;;12.63;8.30;;;22.80;73.70;;;;;;5096258;28;20047;-35
2021/06/18 03:29:38;;;;;;;17.65;9.35;;;22.80;73.60;;;;;;5096172;28;20020;-35
2021/06/18 03:32:05;;;;;;;17.13;9.13;;;22.80;73.80;;;;;;5096158;28;20047;-35
2021/06/18 03:34:32;;;;;;;15.65;10.13;;;22.70;73.80;;;;;;5095515;28;20036;-35
2021/06/18 03:36:59;;;;;;;20.60;10.10;;;22.80;73.90;;;;;;5094856;28;20085;-35
2021/06/18 03:39:26;;;;;;;12.52;9.82;;;22.80;73.90;;;;;;5094822;28;20433;-35
2021/06/18 03:41:51;;;;;;;12.65;9.23;;;22.80;73.90;;;;;;5096435;28;20057;-36
2021/06/18 03:44:19;;;;;;;19.55;9.60;;;22.70;74.30;;;;;;5096510;28;20032;-35
2021/06/18 03:46:46;;;;;;;17.50;9.77;;;22.70;74.20;;;;;;5095820;28;20024;-35
2021/06/18 03:49:13;;;;;;;11.45;9.13;;;22.70;74.40;;;;;;5096040;28;20024;-35
2021/06/18 03:51:39;;;;;;;12.60;9.20;;;22.70;74.30;;;;;;5096033;28;20460;-35
2021/06/18 03:54:07;;;;;;;15.48;9.63;;;22.80;74.20;;;;;;5095775;28;20090;-35
2021/06/18 03:56:34;;;;;;;14.48;9.60;;;22.70;74.30;;;;;;5095631;28;20035;-36
2021/06/18 03:59:01;;;;;;;12.57;9.70;;;22.70;74.30;;;;;;5094381;28;20425;-36
2021/06/18 04:01:27;;;;;;;13.13;9.85;;;22.70;74.40;;;;;;5094099;28;20044;-36
2021/06/18 04:03:55;;;;;;;11.85;10.20;;;22.80;74.10;;;;;;5095057;28;20363;-35
2021/06/18 04:06:22;;;;;;;12.57;10.35;;;22.80;74.10;;;;;;5096088;28;20073;-35
2021/06/18 04:08:49;;;;;;;15.88;10.65;;;22.80;74.30;;;;;;5095536;28;20024;-37
2021/06/18 04:11:15;;;;;;;12.50;10.65;;;22.80;74.20;;;;;;5094126;28;20476;-37
2021/06/18 04:13:41;;;;;;;16.75;11.20;;;22.80;74.40;;;;;;5094053;28;20034;-35
2021/06/18 04:16:09;;;;;;;11.35;10.07;;;22.80;74.40;;;;;;5095536;28;20353;-35
2021/06/18 04:18:39;;;;;;;15.07;10.57;;;22.80;74.50;;;;;;5095500;28;20028;-35
2021/06/18 04:21:10;;;;;;;19.77;11.10;;;22.80;74.30;;;;;;5095079;28;20028;-35
2021/06/18 04:23:35;;;;;;;14.18;9.93;;;22.90;74.10;;;;;;5093841;28;20024;-35
2021/06/18 04:26:01;;;;;;;16.80;10.20;;;22.90;74.00;;;;;;5095326;28;20038;-35
2021/06/18 04:28:28;;;;;;;23.92;11.30;;;23.20;73.00;;;;;;5094900;28;20058;-35
2021/06/18 04:30:54;;;;;;;26.48;12.52;;;23.20;73.10;;;;;;5095186;28;20073;-34
2021/06/18 04:33:20;;;;;;;16.30;10.80;;;23.10;73.00;;;;;;5095113;28;20024;-34
2021/06/18 04:35:45;;;;;;;14.45;10.43;;;23.20;73.10;;;;;;5095395;28;20020;-35
2021/06/18 04:38:11;;;;;;;15.73;10.07;;;23.20;73.20;;;;;;5095342;28;20040;-35
2021/06/18 04:40:37;;;;;;;17.35;10.15;;;23.20;72.70;;;;;;5094711;28;20016;-35
2021/06/18 04:43:03;;;;;;;15.77;10.10;;;23.20;72.60;;;;;;5094893;28;20077;-37
2021/06/18 04:45:29;;;;;;;12.75;9.98;;;23.30;72.60;;;;;;5094160;28;20073;-35
2021/06/18 04:47:56;;;;;;;18.63;10.23;;;23.40;72.10;;;;;;5093904;28;20514;-35
2021/06/18 04:50:22;;;;;;;16.15;10.35;;;23.40;71.60;;;;;;5094566;28;20019;-35
2021/06/18 04:52:48;;;;;;;11.98;9.13;;;23.40;71.50;;;;;;5095319;28;20020;-35
2021/06/18 04:55:17;;;;;;;16.75;8.82;;;23.60;71.10;;;;;;5094979;28;20490;-35
2021/06/18 04:57:48;;;;;;;13.13;8.70;;;23.60;71.10;;;;;;5094922;28;20031;-35
2021/06/18 05:00:15;;;;;;;18.00;11.75;;;23.70;70.30;;;;;;5094322;28;20346;-35
2021/06/18 05:02:41;;;;;;;14.80;9.52;;;23.80;70.40;;;;;;5093566;28;20093;-35
2021/06/18 05:05:07;;;;;;;23.73;11.52;;;23.70;70.70;;;;;;5092831;28;20031;-35
2021/06/18 05:07:32;;;;;;;13.98;9.85;;;23.70;70.70;;;;;;5094403;28;20016;-35
2021/06/18 05:09:59;;;;;;;14.18;9.43;;;23.80;69.60;;;;;;5094308;28;20550;-35
2021/06/18 05:12:25;;;;;;;16.52;10.15;;;23.80;69.60;;;;;;5092983;28;20028;-35
2021/06/18 05:14:51;;;;;;;13.20;8.35;;;23.80;69.40;;;;;;5094219;28;20039;-35
2021/06/18 05:17:17;;;;;;;16.55;10.10;;;23.70;69.90;;;;;;5093850;28;20103;-35
2021/06/18 05:19:42;;;;;;;10.40;9.23;;;23.80;69.40;;;;;;5094212;28;20024;-35
2021/06/18 05:22:08;;;;;;;15.60;8.48;;;23.80;69.30;;;;;;5093493;28;20390;-35
2021/06/18 05:24:34;;;;;;;15.10;9.30;;;23.80;69.40;;;;;;5093923;28;20020;-35
2021/06/18 05:27:00;;;;;;;11.38;8.93;;;23.80;69.40;;;;;;5094031;28;20027;-35
2021/06/18 05:29:26;;;;;;;12.98;8.77;;;24.00;69.00;;;;;;5092670;28;20047;-36
2021/06/18 05:31:51;;;;;;;21.02;9.77;;;24.10;68.60;;;;;;5094257;28;20032;-35
2021/06/18 05:34:17;;;;;;;19.52;10.82;;;24.10;68.50;;;;;;5093792;28;20107;-35
2021/06/18 05:36:46;;;;;;;16.77;11.40;;;24.10;68.50;;;;;;5093896;28;20028;-38
2021/06/18 05:39:15;;;;;;;17.35;11.27;;;24.30;68.10;;;;;;5094063;28;20107;-35
2021/06/18 05:41:42;;;;;;;13.43;10.65;;;24.30;68.00;;;;;;5093639;28;20036;-35
2021/06/18 05:44:08;;;;;;;18.90;14.02;;;24.30;68.40;;;;;;5093201;28;20491;-36
2021/06/18 05:46:34;;;;;;;19.30;12.25;;;24.30;68.20;;;;;;5093455;28;20020;-35
2021/06/18 05:49:00;;;;;;;19.20;14.95;;;24.40;68.10;;;;;;5093668;28;20027;-35
2021/06/18 05:51:25;;;;;;;22.65;14.27;;;24.40;67.80;;;;;;5093396;28;20024;-36
2021/06/18 05:53:53;;;;;;;22.00;12.57;;;24.40;68.40;;;;;;5093562;28;20058;-36
2021/06/18 05:56:19;;;;;;;20.88;13.23;;;24.40;68.50;;;;;;5093461;28;20479;-36
2021/06/18 05:58:45;;;;;;;20.20;13.70;;;24.30;68.80;;;;;;5093578;28;20085;-36
2021/06/18 06:01:10;;;;;;;18.90;12.98;;;24.60;67.90;;;;;;5093110;28;20052;-37
2021/06/18 06:03:36;;;;;;;17.08;12.48;;;24.70;67.60;;;;;;5093042;28;20321;-39
2021/06/18 06:06:02;;;;;;;13.15;10.73;;;24.50;68.10;;;;;;5093139;28;20371;-40
2021/06/18 06:08:29;;;;;;;19.23;12.27;;;24.70;67.80;;;;;;5093107;28;20020;-39
2021/06/18 06:10:55;;;;;;;19.27;11.63;;;24.90;67.50;;;;;;5093228;28;20028;-35
2021/06/18 06:13:21;;;;;;;19.75;11.65;;;25.00;66.80;;;;;;5092881;28;20520;-51
2021/06/18 06:15:48;;;;;;;21.25;11.35;;;24.90;66.90;;;;;;5091605;28;20077;-45
2021/06/18 06:18:14;;;;;;;15.63;11.07;;;24.80;67.40;;;;;;5092948;28;20028;-45
2021/06/18 06:20:43;;;;;;;18.45;12.32;;;25.00;66.90;;;;;;5092813;28;20480;-46
2021/06/18 06:23:10;;;;;;;17.98;11.95;;;25.20;65.80;;;;;;5092912;28;20061;-44
2021/06/18 06:25:36;;;;;;;15.68;12.95;;;25.40;65.10;;;;;;5093104;28;20093;-44
2021/06/18 06:28:02;;;;;;;17.92;12.65;;;25.50;64.40;;;;;;5093020;28;20434;-44
2021/06/18 06:30:27;;;;;;;25.92;13.02;;;25.40;64.70;;;;;;5092672;28;20043;-44
2021/06/18 06:32:53;;;;;;;17.77;12.80;;;25.40;64.70;;;;;;5092983;28;20030;-44
2021/06/18 06:35:18;;;;;;;15.73;11.90;;;25.50;64.50;;;;;;5091391;28;20028;-44
2021/06/18 06:37:44;;;;;;;14.10;12.20;;;25.60;64.20;;;;;;5092823;28;20059;-44
2021/06/18 06:40:11;;;;;;;16.00;12.30;;;25.60;64.30;;;;;;5092496;28;20361;-43
2021/06/18 06:42:37;;;;;;;20.38;13.75;;;25.50;64.30;;;;;;5092722;28;20106;-48
2021/06/18 06:45:04;;;;;;;17.42;13.02;;;25.50;64.60;;;;;;5092859;28;20102;-43
2021/06/18 06:47:30;;;;;;;22.33;12.77;;;25.50;64.60;;;;;;5092612;28;20032;-44
2021/06/18 06:49:56;;;;;;;20.40;14.32;;;25.70;64.00;;;;;;5092632;28;20025;-44
2021/06/18 06:52:22;;;;;;;21.52;12.82;;;25.90;63.10;;;;;;5092967;28;20028;-44
2021/06/18 06:54:48;;;;;;;18.75;13.55;;;26.10;62.60;;;;;;5093027;28;20021;-46
2021/06/18 06:57:16;;;;;;;23.83;12.77;;;26.00;63.10;;;;;;5092443;28;20387;-44
2021/06/18 06:59:42;;;;;;;23.17;13.95;;;26.20;62.20;;;;;;5092157;28;20043;-43
2021/06/18 07:02:08;;;;;;;15.85;11.30;;;26.40;61.80;;;;;;5091929;28;20372;-45
2021/06/18 07:04:34;;;;;;;15.50;13.02;;;26.40;62.00;;;;;;5091919;28;20191;-46
2021/06/18 07:07:00;;;;;;;15.50;12.77;;;26.50;61.40;;;;;;5092368;28;20020;-44
2021/06/18 07:09:25;;;;;;;16.73;13.98;;;26.30;62.10;;;;;;5095015;28;20016;-45
2021/06/18 07:11:51;;;;;;;18.25;12.55;;;26.60;61.40;;;;;;5096647;28;20433;-45
2021/06/18 07:14:18;;;;;;;19.13;12.82;;;26.50;61.50;;;;;;5096173;28;20024;-44
2021/06/18 07:16:43;;;;;;;17.65;12.18;;;26.60;61.80;;;;;;5096731;28;20020;-45
2021/06/18 07:19:11;;;;;;;15.13;12.00;;;27.00;60.40;;;;;;5096242;28;20085;-44
2021/06/18 07:21:37;;;;;;;15.85;12.95;;;26.80;60.80;;;;;;5095181;28;20028;-44
2021/06/18 07:24:03;;;;;;;20.08;12.50;;;26.80;61.30;;;;;;5094718;28;20096;-43
2021/06/18 07:26:28;;;;;;;19.08;13.32;;;26.90;60.90;;;;;;5077883;28;20058;-44
2021/06/18 07:28:54;;;;;;;18.25;12.32;;;27.30;59.40;;;;;;5095723;28;20025;-44
2021/06/18 07:31:21;;;;;;;18.33;12.02;;;28.00;57.10;;;;;;5094897;28;20121;-44
2021/06/18 07:33:47;;;;;;;16.98;11.35;;;28.10;56.90;;;;;;5094421;28;20124;-44
2021/06/18 07:36:13;;;;;;;18.27;12.30;;;27.60;58.50;;;;;;5096308;28;20107;-44
2021/06/18 07:38:38;;;;;;;18.60;13.25;;;28.00;57.20;;;;;;5096339;28;20024;-44
2021/06/18 07:41:04;;;;;;;16.85;11.38;;;27.20;59.60;;;;;;5095403;28;20172;-37
2021/06/18 07:43:30;;;;;;;13.48;11.13;;;27.30;59.00;;;;;;5095455;28;20387;-37
2021/06/18 07:45:56;;;;;;;13.90;11.18;;;27.60;58.20;;;;;;5095568;28;20020;-37
2021/06/18 07:48:22;;;;;;;19.65;11.85;;;27.80;57.90;;;;;;5095529;28;20043;-37
2021/06/18 07:50:47;;;;;;;16.55;11.13;;;28.30;56.20;;;;;;5094079;28;20046;-37
2021/06/18 07:53:14;;;;;;;18.35;12.98;;;28.70;54.80;;;;;;5093908;28;20100;-37
2021/06/18 07:55:41;;;;;;;15.02;11.65;;;28.80;54.40;;;;;;5095873;28;20027;-36
2021/06/18 07:58:08;;;;;;;20.17;12.23;;;29.30;53.30;;;;;;5094153;28;20028;-36
2021/06/18 08:00:34;;;;;;;16.50;11.65;;;29.80;51.90;;;;;;5093627;28;20016;-36
2021/06/18 08:03:02;;;;;;;16.75;11.80;;;29.80;52.10;;;;;;5095151;28;20032;-36
2021/06/18 08:05:28;;;;;;;17.52;12.32;;;30.60;49.80;;;;;;5095185;28;20020;-36
2021/06/18 08:07:56;;;;;;;17.75;12.38;;;30.20;50.40;;;;;;5095163;28;20523;-37
2021/06/18 08:10:22;;;;;;;14.38;10.88;;;30.30;50.30;;;;;;5095510;28;20032;-41
2021/06/18 08:12:48;;;;;;;17.65;11.75;;;29.70;52.10;;;;;;5095096;28;20115;-53
2021/06/18 08:15:15;;;;;;;18.00;12.68;;;29.50;52.30;;;;;;5094909;28;20056;-49
2021/06/18 08:17:41;;;;;;;17.58;12.27;;;29.40;52.60;;;;;;5094638;28;20357;-47
2021/06/18 08:20:07;;;;;;;15.15;11.27;;;29.20;53.30;;;;;;5095503;28;20376;-50
2021/06/18 08:22:33;;;;;;;14.73;10.95;;;29.30;52.90;;;;;;5095432;28;20047;-51
2021/06/18 08:25:01;;;;;;;13.88;11.45;;;30.30;50.60;;;;;;5093549;28;20415;-52
2021/06/18 08:27:27;;;;;;;13.60;10.57;;;30.60;49.60;;;;;;5095022;28;20413;-53
2021/06/18 08:29:52;;;;;;;17.88;10.77;;;30.90;48.30;;;;;;5096141;28;20024;-51
2021/06/18 08:32:19;;;;;;;16.20;12.40;;;31.30;47.00;;;;;;5094074;28;20024;-51
2021/06/18 08:34:45;;;;;;;17.48;11.32;;;31.60;46.10;;;;;;5094073;28;20036;-50
2021/06/18 08:37:10;;;;;;;16.30;11.25;;;31.80;45.40;;;;;;5094534;28;20051;-48
2021/06/18 08:39:37;;;;;;;15.15;9.60;;;31.30;46.40;;;;;;5094794;28;20020;-50
2021/06/18 08:42:04;;;;;;;15.27;10.80;;;31.60;45.90;;;;;;5093005;28;20047;-49
2021/06/18 08:44:30;;;;;;;15.63;12.00;;;30.50;48.00;;;;;;5094361;28;20110;-51
2021/06/18 08:46:55;;;;;;;21.15;11.13;;;31.10;47.50;;;;;;5094579;28;20486;-52
2021/06/18 08:49:23;;;;;;;19.60;10.13;;;31.20;46.70;;;;;;5094670;28;20024;-50
2021/06/18 08:51:48;;;;;;;17.48;10.50;;;31.80;45.60;;;;;;5093031;28;20032;-52
2021/06/18 08:54:14;;;;;;;17.25;10.02;;;31.90;45.40;;;;;;5093968;28;20131;-51
2021/06/18 08:56:40;;;;;;;14.75;9.07;;;32.30;44.40;;;;;;5094320;28;20161;-50
2021/06/18 08:59:06;;;;;;;20.15;10.10;;;32.20;44.40;;;;;;5076023;28;20390;-54
2021/06/18 09:01:32;;;;;;;11.27;8.93;;;32.10;45.40;;;;;;5092774;28;20046;-51
2021/06/18 09:04:05;;;;;;;16.00;9.95;;;31.50;46.10;;;;;;5092988;28;20020;-50
2021/06/18 09:06:43;;;;;;;22.88;11.38;;;32.30;44.80;;;;;;5093989;28;20027;-52
2021/06/18 09:09:23;;;;;;;14.68;11.15;;;32.10;45.20;;;;;;5094685;28;20034;-54
2021/06/18 09:12:02;;;;;;;14.23;9.23;;;31.70;46.00;;;;;;5094558;28;20459;-52
2021/06/18 09:14:33;;;;;;;16.83;9.73;;;32.80;43.80;;;;;;5094652;28;20027;-50
2021/06/18 09:17:08;;;;;;;14.75;8.55;;;32.40;43.80;;;;;;5094671;28;20043;-55
2021/06/18 09:19:46;;;;;;;16.77;9.23;;;32.80;42.50;;;;;;5094492;28;20024;-54
2021/06/18 09:22:22;;;;;;;16.70;9.20;;;31.60;45.50;;;;;;5093253;28;20441;-49
2021/06/18 09:26:48;;;;;;;16.45;8.70;;;30.50;46.70;;;;;;5123584;27;20368;-50
2021/06/18 09:29:16;;;;;;;22.20;8.55;;;30.60;46.70;;;;;;5090782;28;20044;-49
2021/06/18 09:31:49;;;;;;;14.38;7.78;;;30.80;45.30;;;;;;5090347;28;20020;-51
2021/06/18 09:34:28;;;;;;;19.05;8.70;;;30.40;46.70;;;;;;5090937;28;20029;-51
2021/06/18 09:37:17;;;;;;;15.15;8.13;;;30.40;46.00;;;;;;5090732;28;20024;-49
2021/06/18 09:40:16;;;;;;;26.08;9.23;;;30.80;45.80;;;;;;5073247;28;20487;-50
2021/06/18 09:42:48;;;;;;;17.92;7.38;;;30.60;46.80;;;;;;5090714;28;20055;-50
2021/06/18 09:45:17;;;;;;;17.48;7.68;;;30.80;45.50;;;;;;5090203;28;20101;-53
2021/06/18 09:47:44;;;;;;;14.48;7.30;;;30.80;45.20;;;;;;5090356;28;20479;-51
2021/06/18 09:50:15;;;;;;;10.15;6.32;;;30.90;44.70;;;;;;5090470;28;20365;-50
2021/06/18 09:52:42;;;;;;;22.48;6.55;;;31.30;43.60;;;;;;5089789;28;20105;-50
2021/06/18 09:55:09;;;;;;;14.13;6.22;;;31.60;42.30;;;;;;5089573;28;20047;-54
2021/06/18 09:57:40;;;;;;;13.73;8.35;;;32.10;40.10;;;;;;5089661;28;20036;-49
2021/06/18 10:00:08;;;;;;;16.05;6.13;;;32.50;39.70;;;;;;5072375;28;20471;-51
2021/06/18 10:02:46;;;;;;;15.75;5.85;;;32.40;39.00;;;;;;5090083;28;20028;-49
2021/06/18 10:05:20;;;;;;;16.77;7.65;;;32.80;41.00;;;;;;5089833;28;20039;-50
2021/06/18 10:07:47;;;;;;;12.35;9.00;;;32.20;44.30;;;;;;5090839;28;20411;-49
2021/06/18 10:10:18;;;;;;;15.77;7.50;;;31.80;45.50;;;;;;5089809;28;20016;-51
2021/06/18 10:12:45;;;;;;;12.93;6.32;;;31.80;44.70;;;;;;5089663;28;20101;-52
2021/06/18 10:15:14;;;;;;;7.95;6.25;;;31.40;44.60;;;;;;5088094;28;20056;-48
2021/06/18 10:17:41;;;;;;;45.35;8.20;;;32.20;43.00;;;;;;5089412;28;20025;-51
2021/06/18 10:20:13;;;;;;;12.15;6.63;;;32.70;40.80;;;;;;5089642;28;20028;-53
2021/06/18 10:22:53;;;;;;;12.63;6.40;;;32.00;42.10;;;;;;5069459;28;20376;-50
2021/06/18 10:25:43;;;;;;;12.05;6.40;;;32.20;41.80;;;;;;5068882;28;20467;-48
2021/06/18 10:28:12;;;;;;;17.30;7.05;;;31.90;42.10;;;;;;5069334;28;20017;-51
2021/06/18 10:30:52;;;;;;;8.60;5.23;;;32.20;40.90;;;;;;5069510;28;20090;-50
2021/06/18 10:33:31;;;;;;;12.68;4.53;;;31.90;40.60;;;;;;5069269;28;20025;-49
2021/06/18 10:36:04;;;;;;;;;;;31.60;40.90;;;;;;5068495;28;20040;-49
2021/06/18 10:38:47;;;;;;;13.77;5.10;;;31.70;38.70;;;;;;5055235;28;19909;-49
2021/06/18 10:41:13;;;;;;;9.65;4.72;;;31.50;38.00;;;;;;5055672;28;20539;-51
2021/06/18 10:43:51;;;;;;;10.88;3.75;;;32.30;35.80;;;;;;5055817;28;20209;-53
2021/06/18 10:46:20;;;;;;;12.43;4.55;;;32.80;35.60;;;;;;5055435;28;20032;-51
2021/06/18 10:48:52;;;;;;;13.63;6.00;;;33.10;35.80;;;;;;5054276;28;20021;-49
2021/06/18 10:51:30;;;;;;;14.70;4.82;;;33.50;35.70;;;;;;5055783;28;20119;-50
2021/06/18 10:54:26;;;;;;;11.23;5.25;;;33.50;35.60;;;;;;5055494;28;20021;-50
2021/06/18 10:57:03;;;;;;;15.55;5.30;;;34.10;34.80;;;;;;5053986;28;20112;-52
2021/06/18 10:59:43;;;;;;;16.08;6.50;;;34.90;33.70;;;;;;5055905;28;20029;-48
2021/06/18 11:02:21;;;;;;;11.98;6.32;;;35.40;33.60;;;;;;5054094;28;20499;-51
2021/06/18 11:04:57;;;;;;;14.13;5.70;;;33.50;35.60;;;;;;5054964;28;20112;-50
2021/06/18 11:07:24;;;;;;;13.82;5.82;;;33.40;36.70;;;;;;5055172;28;20514;-48
2021/06/18 11:09:54;;;;;;;11.02;5.13;;;33.10;37.20;;;;;;5054229;28;20167;-48
2021/06/18 11:12:26;;;;;;;12.23;5.45;;;33.70;36.40;;;;;;5054906;28;20329;-49
2021/06/18 11:15:21;;;;;;;19.33;7.45;;;33.50;36.70;;;;;;5053694;28;20504;-51
2021/06/18 11:17:59;;;;;;;15.02;6.07;;;32.80;38.40;;;;;;5052427;28;20037;-51
2021/06/18 11:20:46;;;;;;;16.55;6.97;;;32.70;39.30;;;;;;5053915;28;20031;-51
2021/06/18 11:23:16;;;;;;;11.85;6.35;;;32.60;39.20;;;;;;5051730;28;20064;-53
2021/06/18 11:25:42;;;;;;;14.85;7.28;;;32.90;39.60;;;;;;5055253;28;20400;-53
2021/06/18 11:31:01;;;;;;;13.43;6.45;;;33.20;39.80;;;;;;5054880;28;20029;-48
2021/06/18 11:33:42;;;;;;;11.90;6.70;;;33.60;39.30;;;;;;5055433;28;20021;-50
2021/06/18 11:36:21;;;;;;;11.27;6.32;;;33.80;39.00;;;;;;5054969;28;20029;-50
2021/06/18 11:38:59;;;;;;;12.77;7.07;;;34.10;39.00;;;;;;5054958;28;20036;-48
2021/06/18 11:41:30;;;;;;;15.05;6.82;;;33.40;40.20;;;;;;5054997;28;20036;-52
2021/06/18 11:44:01;;;;;;;13.60;6.60;;;34.00;38.80;;;;;;5054667;28;20021;-50
2021/06/18 11:46:28;;;;;;;16.00;7.13;;;34.80;37.60;;;;;;5053974;28;20040;-48
2021/06/18 11:48:55;;;;;;;12.82;5.65;;;35.30;35.80;;;;;;5053550;28;20067;-49
2021/06/18 11:51:23;;;;;;;13.73;5.78;;;35.70;34.30;;;;;;5055571;28;20051;-48
2021/06/18 11:53:49;;;;;;;16.17;5.78;;;35.80;34.00;;;;;;5054556;28;20104;-48
2021/06/18 11:57:52;;;;;;;14.05;7.18;;;36.10;33.50;;;;;;5172673;27;68252;-51
2021/06/18 12:00:28;;;;;;;14.90;7.18;;;35.70;34.50;;;;;;5150873;27;20027;-50
2021/06/18 12:02:56;;;;;;;14.30;5.70;;;35.50;34.80;;;;;;5151077;27;20023;-51
2021/06/18 12:05:22;;;;;;;13.25;7.25;;;34.30;36.40;;;;;;5151444;27;20465;-48
2021/06/18 12:07:48;;;;;;;13.27;5.40;;;34.70;36.10;;;;;;5152317;27;20019;-48
2021/06/18 12:10:29;;;;;;;17.00;5.75;;;36.10;33.20;;;;;;5152048;27;20092;-50
2021/06/18 12:12:57;;;;;;;18.45;6.15;;;36.30;31.90;;;;;;5151984;27;20026;-52
2021/06/18 12:15:24;;;;;;;12.73;6.03;;;35.80;33.00;;;;;;5151956;27;20367;-50
2021/06/18 12:17:51;;;;;;;10.05;3.78;;;36.80;31.60;;;;;;5150399;27;20023;-51
2021/06/18 12:20:32;;;;;;;11.38;3.97;;;35.00;29.80;;;;;;5150962;27;20023;-50
2021/06/18 12:22:59;;;;;;;10.40;3.92;;;35.70;27.00;;;;;;5130040;28;20024;-49
2021/06/18 14:21:33;;;;;;;4.20;2.95;;;37.70;22.60;;;;;;5112860;27;20367;-50
2021/06/18 14:23:59;;;;;;;5.55;2.80;;;37.90;22.40;;;;;;5090776;28;20024;-53
2021/06/18 14:26:26;;;;;;;7.38;2.85;;;38.40;22.20;;;;;;5091179;28;20533;-49
2021/06/18 14:28:52;;;;;;;6.22;2.90;;;39.10;21.30;;;;;;5089765;28;20031;-50
2021/06/18 14:31:19;;;;;;;4.03;3.25;;;38.60;22.00;;;;;;5090961;28;20095;-49
2021/06/18 14:33:45;;;;;;;4.88;2.90;;;38.60;22.20;;;;;;5090572;28;20024;-51
2021/06/18 14:36:10;;;;;;;5.80;3.30;;;39.90;20.70;;;;;;5089011;28;20025;-53
2021/06/18 14:38:36;;;;;;;6.30;3.00;;;40.20;20.50;;;;;;5089162;28;20027;-50
2021/06/18 14:41:02;;;;;;;6.43;2.70;;;39.70;21.00;;;;;;5089216;28;20024;-47
2021/06/18 14:43:27;;;;;;;6.10;2.60;;;39.70;21.10;;;;;;5091142;28;20107;-50
2021/06/18 14:45:53;;;;;;;6.60;2.97;;;38.80;21.90;;;;;;5089435;28;20388;-52
2021/06/18 14:48:19;;;;;;;5.88;3.78;;;37.90;22.90;;;;;;5090171;28;20024;-49